createdAt,value
2018-10-05T00:00:50.673Z,0
2018-10-05T00:01:51.303Z,0
2018-10-05T00:02:51.887Z,0
2018-10-05T00:03:52.507Z,0
2018-10-05T00:04:53.088Z,0
2018-10-05T00:05:53.665Z,0
2018-10-05T00:06:54.245Z,0
2018-10-05T00:07:54.827Z,0
2018-10-05T00:08:55.457Z,0
2018-10-05T00:09:56.086Z,0
2018-10-05T00:10:56.665Z,0
2018-10-05T00:11:57.247Z,0
2018-10-05T00:12:57.827Z,0
2018-10-05T00:13:58.407Z,0
2018-10-05T00:14:58.986Z,0
2018-10-05T00:15:59.615Z,0
2018-10-05T00:17:00.196Z,0
2018-10-05T00:18:00.778Z,0
2018-10-05T00:19:01.359Z,0
2018-10-05T00:20:01.938Z,0
2018-10-05T00:21:02.567Z,0
2018-10-05T00:22:03.195Z,0
2018-10-05T00:23:03.777Z,0
2018-10-05T00:24:04.356Z,0
2018-10-05T00:25:04.987Z,0
2018-10-05T00:26:05.569Z,0
2018-10-05T00:27:06.149Z,0
2018-10-05T00:28:06.781Z,0
2018-10-05T00:29:07.433Z,0
2018-10-05T00:30:07.979Z,0
2018-10-05T00:31:08.557Z,0
2018-10-05T00:32:09.155Z,0
2018-10-05T00:33:09.810Z,0
2018-10-05T00:34:10.389Z,0
2018-10-05T00:35:10.970Z,0
2018-10-05T00:36:11.548Z,0
2018-10-05T00:37:12.126Z,0
2018-10-05T00:38:12.705Z,0
2018-10-05T00:39:13.283Z,0
2018-10-05T00:40:13.864Z,0
2018-10-05T00:41:14.488Z,0
2018-10-05T00:42:15.107Z,0
2018-10-05T00:43:15.748Z,0
2018-10-05T00:44:16.317Z,0
2018-10-05T00:45:16.897Z,0
2018-10-05T00:46:17.525Z,0
2018-10-05T00:47:18.106Z,0
2018-10-05T00:48:18.690Z,0
2018-10-05T00:49:19.310Z,0
2018-10-05T00:50:19.890Z,0
2018-10-05T00:51:20.470Z,0
2018-10-05T00:52:21.051Z,0
2018-10-05T00:53:21.672Z,0
2018-10-05T00:54:22.259Z,0
2018-10-05T00:55:22.839Z,0
2018-10-05T00:56:23.421Z,0
2018-10-05T00:57:23.998Z,0
2018-10-05T00:58:24.578Z,0
2018-10-05T00:59:25.159Z,0
2018-10-05T01:00:25.738Z,0
2018-10-05T01:01:26.372Z,0
2018-10-05T01:02:26.947Z,0
2018-10-05T01:03:27.580Z,0
2018-10-05T01:04:28.162Z,0
2018-10-05T01:05:28.791Z,0
2018-10-05T01:06:29.370Z,0
2018-10-05T01:07:29.948Z,0
2018-10-05T01:08:30.529Z,0
2018-10-05T01:09:31.106Z,0
2018-10-05T01:10:31.741Z,0
2018-10-05T01:11:32.461Z,0
2018-10-05T01:12:32.938Z,0
2018-10-05T01:13:33.570Z,0
2018-10-05T01:14:34.146Z,0
2018-10-05T01:15:34.725Z,0
2018-10-05T01:16:35.308Z,0
2018-10-05T01:17:35.889Z,0
2018-10-05T01:18:36.521Z,0
2018-10-05T01:19:37.103Z,0
2018-10-05T01:20:37.697Z,0
2018-10-05T01:21:38.278Z,0
2018-10-05T01:22:38.860Z,0
2018-10-05T01:23:39.439Z,0
2018-10-05T01:24:40.033Z,0
2018-10-05T01:25:40.600Z,0
2018-10-05T01:26:41.181Z,0
2018-10-05T01:27:41.811Z,0
2018-10-05T01:28:42.392Z,0
2018-10-05T01:29:42.977Z,0
2018-10-05T01:30:43.645Z,0
2018-10-05T01:31:44.224Z,0
2018-10-05T01:32:44.807Z,0
2018-10-05T01:33:45.388Z,0
2018-10-05T01:34:45.969Z,0
2018-10-05T01:35:46.696Z,0
2018-10-05T01:36:47.274Z,0
2018-10-05T01:37:47.853Z,0
2018-10-05T01:38:48.481Z,0
2018-10-05T01:39:49.011Z,0
2018-10-05T01:40:49.589Z,0
2018-10-05T01:41:50.175Z,0
2018-10-05T01:42:50.750Z,0
2018-10-05T01:43:51.332Z,0
2018-10-05T01:44:52.007Z,0
2018-10-05T01:45:52.582Z,0
2018-10-05T01:46:53.160Z,0
2018-10-05T01:47:53.738Z,0
2018-10-05T01:48:54.319Z,0
2018-10-05T01:49:54.950Z,0
2018-10-05T01:50:55.533Z,0
2018-10-05T01:51:56.194Z,0
2018-10-05T01:52:56.773Z,0
2018-10-05T01:53:57.354Z,0
2018-10-05T01:54:57.931Z,0
2018-10-05T01:55:58.511Z,0
2018-10-05T01:56:59.090Z,0
2018-10-05T01:57:59.670Z,0
2018-10-05T01:59:00.305Z,0
2018-10-05T02:00:00.924Z,0
2018-10-05T02:01:01.501Z,0
2018-10-05T02:02:02.081Z,0
2018-10-05T02:03:02.710Z,0
2018-10-05T02:04:03.291Z,0
2018-10-05T02:05:03.921Z,0
2018-10-05T02:06:04.549Z,0
2018-10-05T02:07:05.134Z,0
2018-10-05T02:08:06.561Z,0
2018-10-05T02:09:07.143Z,0
2018-10-05T02:10:07.722Z,0
2018-10-05T02:11:08.302Z,0
2018-10-05T02:12:08.881Z,0
2018-10-05T02:13:09.459Z,0
2018-10-05T02:14:10.086Z,0
2018-10-05T02:15:10.665Z,0
2018-10-05T02:16:11.246Z,0
2018-10-05T02:17:11.823Z,0
2018-10-05T02:18:12.404Z,0
2018-10-05T02:19:12.985Z,0
2018-10-05T02:20:13.570Z,0
2018-10-05T02:21:14.140Z,0
2018-10-05T02:22:14.721Z,0
2018-10-05T02:23:15.348Z,0
2018-10-05T02:24:15.927Z,0
2018-10-05T02:25:16.508Z,0
2018-10-05T02:26:17.089Z,0
2018-10-05T02:27:17.683Z,0
2018-10-05T02:28:18.244Z,0
2018-10-05T02:29:18.824Z,0
2018-10-05T02:30:19.454Z,0
2018-10-05T02:31:20.036Z,0
2018-10-05T02:32:20.674Z,0
2018-10-05T02:33:21.290Z,0
2018-10-05T02:34:21.867Z,0
2018-10-05T02:35:22.449Z,0
2018-10-05T02:36:23.029Z,0
2018-10-05T02:37:23.610Z,0
2018-10-05T02:38:24.189Z,0
2018-10-05T02:39:24.768Z,0
2018-10-05T02:40:25.347Z,0
2018-10-05T02:41:26.045Z,0
2018-10-05T02:42:26.557Z,0
2018-10-05T02:43:27.135Z,0
2018-10-05T02:44:27.716Z,0
2018-10-05T02:45:28.292Z,0
2018-10-05T02:46:28.876Z,0
2018-10-05T02:47:29.455Z,0
2018-10-05T02:48:30.884Z,0
2018-10-05T02:49:31.512Z,0
2018-10-05T02:50:32.092Z,0
2018-10-05T02:51:32.673Z,0
2018-10-05T02:52:33.252Z,0
2018-10-05T02:53:33.831Z,0
2018-10-05T02:54:34.453Z,0
2018-10-05T02:55:35.033Z,0
2018-10-05T02:56:35.623Z,0
2018-10-05T02:57:36.238Z,0
2018-10-05T02:58:36.818Z,0
2018-10-05T02:59:37.397Z,0
2018-10-05T03:00:37.984Z,0
2018-10-05T03:01:38.602Z,0
2018-10-05T03:02:39.199Z,0
2018-10-05T03:03:39.807Z,0
2018-10-05T03:04:40.387Z,0
2018-10-05T03:05:41.115Z,0
2018-10-05T03:06:41.745Z,0
2018-10-05T03:07:42.325Z,0
2018-10-05T03:08:42.905Z,0
2018-10-05T03:09:43.527Z,0
2018-10-05T03:10:44.107Z,0
2018-10-05T03:11:44.688Z,0
2018-10-05T03:12:45.265Z,0
2018-10-05T03:13:45.846Z,0
2018-10-05T03:14:46.424Z,0
2018-10-05T03:15:47.001Z,0
2018-10-05T03:16:47.579Z,0
2018-10-05T03:17:48.158Z,0
2018-10-05T03:18:48.887Z,0
2018-10-05T03:19:49.506Z,0
2018-10-05T03:20:50.082Z,0
2018-10-05T03:21:50.711Z,0
2018-10-05T03:22:51.341Z,0
2018-10-05T03:23:51.919Z,0
2018-10-05T03:24:52.496Z,0
2018-10-05T03:25:53.074Z,0
2018-10-05T03:26:53.652Z,0
2018-10-05T03:27:54.231Z,0
2018-10-05T03:28:54.809Z,0
2018-10-05T03:29:55.386Z,0
2018-10-05T03:30:55.965Z,0
2018-10-05T03:31:56.543Z,0
2018-10-05T03:32:57.123Z,0
2018-10-05T03:33:57.697Z,0
2018-10-05T03:34:58.275Z,0
2018-10-05T03:35:58.855Z,0
2018-10-05T03:36:59.432Z,0
2018-10-05T03:38:00.073Z,0
2018-10-05T03:39:00.650Z,0
2018-10-05T03:40:01.282Z,0
2018-10-05T03:41:01.909Z,0
2018-10-05T03:42:02.485Z,0
2018-10-05T03:43:03.119Z,0
2018-10-05T03:44:03.751Z,0
2018-10-05T03:45:04.312Z,0
2018-10-05T03:46:04.890Z,0
2018-10-05T03:47:05.520Z,0
2018-10-05T03:48:06.101Z,0
2018-10-05T03:49:06.721Z,0
2018-10-05T03:50:07.295Z,0
2018-10-05T03:51:07.872Z,0
2018-10-05T03:52:08.450Z,0
2018-10-05T03:53:09.071Z,0
2018-10-05T03:54:09.704Z,0
2018-10-05T03:55:10.266Z,0
2018-10-05T03:56:10.845Z,0
2018-10-05T03:57:11.476Z,0
2018-10-05T03:58:12.065Z,0
2018-10-05T03:59:12.636Z,0
2018-10-05T04:00:13.219Z,0
2018-10-05T04:01:13.848Z,0
2018-10-05T04:02:14.428Z,0
2018-10-05T04:03:15.006Z,0
2018-10-05T04:04:15.635Z,0
2018-10-05T04:05:16.216Z,0
2018-10-05T04:06:16.797Z,0
2018-10-05T04:07:17.377Z,0
2018-10-05T04:08:17.957Z,0
2018-10-05T04:09:18.537Z,0
2018-10-05T04:10:19.113Z,0
2018-10-05T04:11:19.692Z,0
2018-10-05T04:12:20.270Z,0
2018-10-05T04:13:20.849Z,0
2018-10-05T04:14:21.426Z,0
2018-10-05T04:15:22.004Z,0
2018-10-05T04:16:22.581Z,0
2018-10-05T04:17:23.162Z,0
2018-10-05T04:18:23.792Z,0
2018-10-05T04:19:24.371Z,0
2018-10-05T04:20:24.949Z,0
2018-10-05T04:21:25.530Z,0
2018-10-05T04:22:26.159Z,0
2018-10-05T04:23:26.789Z,0
2018-10-05T04:24:27.370Z,0
2018-10-05T04:25:27.953Z,0
2018-10-05T04:26:28.573Z,0
2018-10-05T04:27:29.155Z,0
2018-10-05T04:28:29.732Z,0
2018-10-05T04:29:30.313Z,0
2018-10-05T04:30:30.891Z,0
2018-10-05T04:31:31.471Z,0
2018-10-05T04:32:32.051Z,0
2018-10-05T04:33:32.630Z,0
2018-10-05T04:34:33.209Z,0
2018-10-05T04:35:33.880Z,0
2018-10-05T04:36:34.369Z,0
2018-10-05T04:37:34.951Z,0
2018-10-05T04:38:35.580Z,0
2018-10-05T04:39:36.157Z,0
2018-10-05T04:40:36.736Z,0
2018-10-05T04:41:37.315Z,0
2018-10-05T04:42:37.945Z,0
2018-10-05T04:43:38.525Z,0
2018-10-05T04:44:39.106Z,0
2018-10-05T04:45:39.684Z,0
2018-10-05T04:46:40.261Z,0
2018-10-05T04:47:40.893Z,0
2018-10-05T04:48:41.471Z,0
2018-10-05T04:49:42.157Z,0
2018-10-05T04:50:42.629Z,0
2018-10-05T04:51:43.206Z,0
2018-10-05T04:52:43.784Z,0
2018-10-05T04:53:44.362Z,0
2018-10-05T04:54:44.941Z,0
2018-10-05T04:55:45.570Z,0
2018-10-05T04:56:46.169Z,0
2018-10-05T04:57:46.734Z,0
2018-10-05T04:58:47.361Z,0
2018-10-05T04:59:47.940Z,0
2018-10-05T05:00:48.521Z,0
2018-10-05T05:01:49.101Z,0
2018-10-05T05:02:49.681Z,0
2018-10-05T05:03:51.113Z,0
2018-10-05T05:04:51.692Z,0
2018-10-05T05:05:52.270Z,0
2018-10-05T05:06:52.850Z,0
2018-10-05T05:07:53.429Z,0
2018-10-05T05:08:54.010Z,0
2018-10-05T05:09:54.589Z,0
2018-10-05T05:10:55.168Z,0
2018-10-05T05:11:55.748Z,0
2018-10-05T05:12:56.329Z,0
2018-10-05T05:13:56.905Z,0
2018-10-05T05:14:57.483Z,0
2018-10-05T05:15:58.112Z,0
2018-10-05T05:16:58.742Z,0
2018-10-05T05:17:59.320Z,0
2018-10-05T05:18:59.896Z,0
2018-10-05T05:20:00.526Z,0
2018-10-05T05:21:01.148Z,0
2018-10-05T05:22:01.728Z,0
2018-10-05T05:23:02.306Z,0
2018-10-05T05:24:02.888Z,0
2018-10-05T05:25:03.469Z,0
2018-10-05T05:26:04.091Z,0
2018-10-05T05:27:04.671Z,0
2018-10-05T05:28:05.251Z,0
2018-10-05T05:29:05.830Z,0
2018-10-05T05:30:06.408Z,0
2018-10-05T05:31:07.087Z,0
2018-10-05T05:32:07.775Z,0
2018-10-05T05:33:08.351Z,0
2018-10-05T05:34:08.980Z,0
2018-10-05T05:35:09.561Z,0
2018-10-05T05:36:10.988Z,0
2018-10-05T05:37:11.567Z,0
2018-10-05T05:38:12.146Z,0
2018-10-05T05:39:12.723Z,0
2018-10-05T05:40:13.406Z,0
2018-10-05T05:41:13.929Z,0
2018-10-05T05:42:14.710Z,0
2018-10-05T05:43:15.289Z,0
2018-10-05T05:44:15.871Z,0
2018-10-05T05:45:16.450Z,0
2018-10-05T05:46:17.032Z,0
2018-10-05T05:47:17.610Z,0
2018-10-05T05:48:18.260Z,0
2018-10-05T05:49:18.967Z,0
2018-10-05T05:50:19.547Z,0
2018-10-05T05:51:20.127Z,0
2018-10-05T05:52:20.704Z,0
2018-10-05T05:53:21.281Z,0
2018-10-05T05:54:21.876Z,0
2018-10-05T05:55:22.526Z,0
2018-10-05T05:56:23.106Z,0
2018-10-05T05:57:23.729Z,0
2018-10-05T05:58:24.308Z,0
2018-10-05T05:59:24.894Z,0
2018-10-05T06:00:25.512Z,0
2018-10-05T06:01:26.096Z,0
2018-10-05T06:02:26.670Z,0
2018-10-05T06:03:27.250Z,0
2018-10-05T06:04:28.023Z,0
2018-10-05T06:05:28.603Z,0
2018-10-05T06:06:29.186Z,0
2018-10-05T06:07:29.766Z,0
2018-10-05T06:08:30.341Z,0
2018-10-05T06:09:30.973Z,0
2018-10-05T06:10:32.545Z,0
2018-10-05T06:11:33.121Z,0
2018-10-05T06:12:33.699Z,0
2018-10-05T06:13:34.276Z,0
2018-10-05T06:14:34.855Z,0
2018-10-05T06:15:35.434Z,0
2018-10-05T06:16:36.081Z,0
2018-10-05T06:17:36.593Z,0
2018-10-05T06:18:37.172Z,0
2018-10-05T06:19:37.754Z,0
2018-10-05T06:20:38.371Z,0
2018-10-05T06:21:39.068Z,0
2018-10-05T06:22:39.681Z,0
2018-10-05T06:23:40.182Z,0
2018-10-05T06:24:40.812Z,0
2018-10-05T06:25:41.389Z,0
2018-10-05T06:26:41.968Z,0
2018-10-05T06:27:42.549Z,0
2018-10-05T06:28:43.126Z,0
2018-10-05T06:29:43.705Z,0
2018-10-05T06:30:44.441Z,0
2018-10-05T06:31:44.916Z,0
2018-10-05T06:32:45.544Z,0
2018-10-05T06:33:46.126Z,0
2018-10-05T06:34:46.707Z,0
2018-10-05T06:35:47.379Z,0
2018-10-05T06:36:47.961Z,0
2018-10-05T06:37:48.542Z,0
2018-10-05T06:38:49.166Z,0
2018-10-05T06:39:49.741Z,0
2018-10-05T06:40:50.319Z,0
2018-10-05T06:41:51.029Z,0
2018-10-05T06:42:51.527Z,0
2018-10-05T06:43:52.108Z,0
2018-10-05T06:44:52.685Z,0
2018-10-05T06:45:53.265Z,0
2018-10-05T06:46:53.848Z,0
2018-10-05T06:47:54.426Z,0
2018-10-05T06:48:55.069Z,0
2018-10-05T06:49:55.634Z,0
2018-10-05T06:50:56.261Z,0
2018-10-05T06:51:56.839Z,0
2018-10-05T06:52:57.420Z,0
2018-10-05T06:53:58.001Z,0
2018-10-05T06:54:58.579Z,0
2018-10-05T06:55:59.159Z,0
2018-10-05T06:56:59.738Z,0
2018-10-05T06:58:00.365Z,0
2018-10-05T06:59:00.946Z,0
2018-10-05T07:00:01.566Z,0
2018-10-05T07:01:02.185Z,0
2018-10-05T07:02:02.765Z,0
2018-10-05T07:03:03.345Z,0
2018-10-05T07:04:03.923Z,0
2018-10-05T07:05:04.505Z,0
2018-10-05T07:06:05.082Z,0
2018-10-05T07:07:05.661Z,0
2018-10-05T07:08:06.366Z,0
2018-10-05T07:09:06.871Z,0
2018-10-05T07:10:07.448Z,0
2018-10-05T07:11:08.077Z,0
2018-10-05T07:12:08.656Z,0
2018-10-05T07:13:09.236Z,0
2018-10-05T07:14:09.816Z,0
2018-10-05T07:15:10.395Z,0
2018-10-05T07:16:10.973Z,0
2018-10-05T07:17:11.555Z,0
2018-10-05T07:18:12.183Z,0
2018-10-05T07:19:12.763Z,0
2018-10-05T07:20:13.343Z,0
2018-10-05T07:21:13.932Z,0
2018-10-05T07:22:14.550Z,0
2018-10-05T07:23:15.165Z,0
2018-10-05T07:24:15.794Z,0
2018-10-05T07:25:16.373Z,0
2018-10-05T07:26:16.952Z,0
2018-10-05T07:27:17.532Z,0
2018-10-05T07:28:18.188Z,0
2018-10-05T07:29:18.692Z,0
2018-10-05T07:30:19.269Z,0
2018-10-05T07:31:19.847Z,0
2018-10-05T07:32:20.427Z,0
2018-10-05T07:33:21.054Z,0
2018-10-05T07:34:21.640Z,0
2018-10-05T07:35:22.218Z,0
2018-10-05T07:36:22.797Z,0
2018-10-05T07:37:23.445Z,0
2018-10-05T07:38:24.007Z,0
2018-10-05T07:39:24.586Z,0
2018-10-05T07:40:25.164Z,0
2018-10-05T07:41:25.743Z,0
2018-10-05T07:42:26.375Z,0
2018-10-05T07:43:26.998Z,0
2018-10-05T07:44:27.576Z,0
2018-10-05T07:45:28.155Z,0
2018-10-05T07:46:28.734Z,0
2018-10-05T07:47:29.315Z,0
2018-10-05T07:48:29.892Z,0
2018-10-05T07:49:30.474Z,0
2018-10-05T07:50:32.053Z,0
2018-10-05T07:51:32.631Z,0
2018-10-05T07:52:33.216Z,0
2018-10-05T07:53:33.838Z,0
2018-10-05T07:54:34.413Z,0
2018-10-05T07:55:34.991Z,0
2018-10-05T07:56:35.572Z,0
2018-10-05T07:57:36.250Z,0
2018-10-05T07:58:36.731Z,0
2018-10-05T07:59:37.312Z,0
2018-10-05T08:00:37.943Z,0
2018-10-05T08:01:38.525Z,0
2018-10-05T08:02:39.104Z,0
2018-10-05T08:03:39.731Z,0
2018-10-05T08:04:40.310Z,0
2018-10-05T08:05:40.887Z,0
2018-10-05T08:06:41.466Z,0
2018-10-05T08:07:42.044Z,0
2018-10-05T08:08:42.624Z,0
2018-10-05T08:09:43.307Z,0
2018-10-05T08:10:43.882Z,0
2018-10-05T08:11:44.465Z,0
2018-10-05T08:12:45.045Z,0
2018-10-05T08:13:45.622Z,0
2018-10-05T08:14:46.203Z,0
2018-10-05T08:15:46.779Z,0
2018-10-05T08:16:47.359Z,0
2018-10-05T08:17:47.935Z,0
2018-10-05T08:18:48.511Z,0
2018-10-05T08:19:49.090Z,0
2018-10-05T08:20:49.719Z,0
2018-10-05T08:21:50.298Z,0
2018-10-05T08:22:50.928Z,0
2018-10-05T08:23:51.506Z,0
2018-10-05T08:24:52.090Z,0
2018-10-05T08:25:52.664Z,0
2018-10-05T08:26:53.251Z,0
2018-10-05T08:27:53.967Z,0
2018-10-05T08:28:54.453Z,0
2018-10-05T08:29:55.033Z,0
2018-10-05T08:30:55.612Z,0
2018-10-05T08:31:56.190Z,0
2018-10-05T08:32:56.820Z,0
2018-10-05T08:33:57.424Z,4
2018-10-05T08:34:57.980Z,4
2018-10-05T08:35:58.559Z,0
2018-10-05T08:36:59.139Z,0
2018-10-05T08:37:59.718Z,0
2018-10-05T08:39:00.299Z,4
2018-10-05T08:40:00.940Z,4
2018-10-05T08:41:01.457Z,4
2018-10-05T08:42:02.085Z,4
2018-10-05T08:43:02.665Z,4
2018-10-05T08:44:03.244Z,4
2018-10-05T08:45:03.826Z,4
2018-10-05T08:46:04.527Z,0
2018-10-05T08:47:05.073Z,0
2018-10-05T08:48:05.650Z,0
2018-10-05T08:49:06.227Z,0
2018-10-05T08:50:06.805Z,0
2018-10-05T08:51:07.384Z,0
2018-10-05T08:52:08.315Z,0
2018-10-05T08:53:08.839Z,0
2018-10-05T08:54:09.418Z,0
2018-10-05T08:55:09.997Z,0
2018-10-05T08:56:10.576Z,0
2018-10-05T08:57:11.156Z,0
2018-10-05T08:58:11.735Z,0
2018-10-05T08:59:12.316Z,0
2018-10-05T09:00:12.994Z,8
2018-10-05T09:01:13.473Z,4
2018-10-05T09:02:14.052Z,4
2018-10-05T09:03:14.832Z,4
2018-10-05T09:04:15.411Z,8
2018-10-05T09:05:15.990Z,8
2018-10-05T09:06:16.570Z,4
2018-10-05T09:07:17.199Z,4
2018-10-05T09:08:17.780Z,4
2018-10-05T09:09:18.401Z,4
2018-10-05T09:10:19.001Z,4
2018-10-05T09:11:19.629Z,4
2018-10-05T09:12:20.158Z,4
2018-10-05T09:13:20.736Z,4
2018-10-05T09:14:21.314Z,4
2018-10-05T09:15:21.892Z,8
2018-10-05T09:16:22.471Z,8
2018-10-05T09:17:23.049Z,4
2018-10-05T09:18:23.678Z,4
2018-10-05T09:19:24.255Z,8
2018-10-05T09:20:24.835Z,8
2018-10-05T09:21:25.463Z,4
2018-10-05T09:22:26.092Z,4
2018-10-05T09:23:26.671Z,4
2018-10-05T09:24:27.252Z,4
2018-10-05T09:25:27.831Z,4
2018-10-05T09:26:33.463Z,8
2018-10-05T09:27:34.042Z,8
2018-10-05T09:28:34.632Z,516
2018-10-05T09:29:35.212Z,2148
2018-10-05T09:30:35.843Z,2128
2018-10-05T09:31:36.377Z,2240
2018-10-05T09:32:36.962Z,2408
2018-10-05T09:33:37.545Z,2516
2018-10-05T09:34:38.179Z,2464
2018-10-05T09:35:38.765Z,2328
2018-10-05T09:36:39.400Z,2392
2018-10-05T09:37:40.083Z,2572
2018-10-05T09:38:40.656Z,2804
2018-10-05T09:39:41.241Z,2732
2018-10-05T09:40:41.825Z,2692
2018-10-05T09:41:42.410Z,2896
2018-10-05T09:42:42.993Z,2628
2018-10-05T09:43:43.575Z,2436
2018-10-05T09:44:44.204Z,2408
2018-10-05T09:45:44.742Z,2476
2018-10-05T09:46:45.329Z,2448
2018-10-05T09:47:45.910Z,2572
2018-10-05T09:48:46.493Z,2852
2018-10-05T09:49:47.128Z,2840
2018-10-05T09:50:47.713Z,2684
2018-10-05T09:51:48.358Z,2632
2018-10-05T09:52:49.022Z,2596
2018-10-05T09:53:49.515Z,2652
2018-10-05T09:54:50.113Z,2620
2018-10-05T09:55:50.731Z,2664
2018-10-05T09:56:51.320Z,2584
2018-10-05T09:57:51.941Z,2500
2018-10-05T09:58:52.525Z,2480
2018-10-05T09:59:53.145Z,2496
2018-10-05T10:00:53.697Z,2432
2018-10-05T10:01:54.279Z,2500
2018-10-05T10:02:54.867Z,2496
2018-10-05T10:03:55.448Z,2528
2018-10-05T10:04:56.032Z,2708
2018-10-05T10:05:56.616Z,2800
2018-10-05T10:06:57.253Z,2756
2018-10-05T10:07:57.955Z,2612
2018-10-05T10:08:58.558Z,2552
2018-10-05T10:09:59.150Z,2564
2018-10-05T10:10:59.729Z,2532
2018-10-05T10:12:00.316Z,2832
2018-10-05T10:13:00.900Z,3104
2018-10-05T10:14:01.573Z,3156
2018-10-05T10:15:02.074Z,3248
2018-10-05T10:16:02.656Z,3096
2018-10-05T10:17:03.243Z,3000
2018-10-05T10:18:03.879Z,2920
2018-10-05T10:19:04.514Z,3008
2018-10-05T10:20:05.160Z,3256
2018-10-05T10:21:05.775Z,3256
2018-10-05T10:22:06.361Z,3268
2018-10-05T10:23:06.946Z,3464
2018-10-05T10:24:07.532Z,3736
2018-10-05T10:25:08.168Z,4160
2018-10-05T10:26:08.756Z,4628
2018-10-05T10:27:09.382Z,5108
2018-10-05T10:28:10.063Z,3856
2018-10-05T10:29:10.742Z,3412
2018-10-05T10:30:11.194Z,3404
2018-10-05T10:31:11.820Z,3928
2018-10-05T10:32:12.402Z,6140
2018-10-05T10:33:12.991Z,5636
2018-10-05T10:34:13.617Z,5100
2018-10-05T10:35:14.364Z,5156
2018-10-05T10:36:15.039Z,4808
2018-10-05T10:37:15.628Z,4720
2018-10-05T10:38:16.213Z,4360
2018-10-05T10:39:16.800Z,4556
2018-10-05T10:40:17.385Z,5308
2018-10-05T10:41:17.970Z,5296
2018-10-05T10:42:18.557Z,7808
2018-10-05T10:43:19.193Z,16132
2018-10-05T10:44:19.781Z,20672
2018-10-05T10:45:20.424Z,17548
2018-10-05T10:46:21.010Z,20800
2018-10-05T10:47:21.595Z,18624
2018-10-05T10:48:22.183Z,16204
2018-10-05T10:49:22.770Z,32416
2018-10-05T10:50:23.359Z,28896
2018-10-05T10:51:23.947Z,10660
2018-10-05T10:52:25.337Z,53696
2018-10-05T10:53:25.977Z,56160
2018-10-05T10:54:26.564Z,54304
2018-10-05T10:55:27.157Z,47648
2018-10-05T10:56:27.747Z,47104
2018-10-05T10:57:28.388Z,40512
2018-10-05T10:59:30.559Z,61472
2018-10-05T11:00:31.202Z,56480
2018-10-05T11:01:31.793Z,45312
2018-10-05T11:03:34.008Z,64672
2018-10-05T11:04:34.680Z,57472
2018-10-05T11:05:35.198Z,59008
2018-10-05T11:06:35.793Z,62240
2018-10-05T11:07:36.389Z,62624
2018-10-05T11:09:38.569Z,60224
2018-10-05T11:10:39.164Z,62432
2018-10-05T11:11:39.762Z,63712
2018-10-05T11:12:40.440Z,60928
2018-10-05T11:13:54.808Z,67904
2018-10-05T11:15:13.168Z,67680
2018-10-05T11:16:13.766Z,67744
2018-10-05T11:17:14.363Z,67520
2018-10-05T11:21:19.817Z,69472
2018-10-05T11:22:20.409Z,70176
2018-10-05T11:24:44.420Z,68352
2018-10-05T11:25:58.779Z,65344
2018-10-05T11:26:59.377Z,66720
2018-10-05T11:28:17.748Z,69312
2018-10-05T11:29:18.347Z,70080
2018-10-05T11:31:25.688Z,69696
2018-10-05T11:33:29.584Z,67776
2018-10-05T11:34:30.224Z,68128
2018-10-05T11:35:30.924Z,64864
2018-10-05T11:37:33.108Z,12728
2018-10-05T11:38:33.699Z,8992
2018-10-05T11:39:34.286Z,6512
2018-10-05T11:40:34.882Z,5340
2018-10-05T11:41:40.522Z,4824
2018-10-05T11:42:41.112Z,4112
2018-10-05T11:43:41.705Z,3560
2018-10-05T11:44:47.348Z,3212
2018-10-05T11:45:47.944Z,2904
2018-10-05T11:46:48.589Z,2768
2018-10-05T11:47:49.187Z,2784
2018-10-05T11:48:49.785Z,2908
2018-10-05T11:49:50.427Z,3156
2018-10-05T11:50:51.023Z,3588
2018-10-05T11:51:51.619Z,3952
2018-10-05T11:55:14.654Z,5252
2018-10-05T11:56:15.248Z,5420
2018-10-05T11:57:15.842Z,5436
2018-10-05T11:58:16.435Z,5368
2018-10-05T12:01:47.851Z,4652
2018-10-05T12:04:03.880Z,3916
2018-10-05T12:05:04.509Z,3640
2018-10-05T12:06:05.112Z,3372
2018-10-05T12:08:07.271Z,2988
2018-10-05T12:10:23.340Z,2700
2018-10-05T12:12:25.503Z,2552
2018-10-05T12:13:26.085Z,2568
2018-10-05T12:14:26.667Z,2560
2018-10-05T12:15:27.249Z,2580
2018-10-05T12:16:27.887Z,2588
2018-10-05T12:17:28.465Z,2600
2018-10-05T12:18:29.246Z,2596
2018-10-05T12:19:29.828Z,2596
2018-10-05T12:20:30.407Z,2600
2018-10-05T12:25:51.200Z,2640
2018-10-05T12:26:51.789Z,2660
2018-10-05T12:27:52.378Z,2712
2018-10-05T12:28:53.017Z,2728
2018-10-05T12:29:53.609Z,2696
2018-10-05T12:30:54.196Z,2732
2018-10-05T12:31:54.836Z,2800
2018-10-05T12:32:55.425Z,2816
2018-10-05T12:33:56.013Z,2808
2018-10-05T12:34:56.652Z,2832
2018-10-05T12:35:57.242Z,2852
2018-10-05T12:37:59.408Z,2908
2018-10-05T12:39:00.028Z,2904
2018-10-05T12:40:00.611Z,2976
2018-10-05T12:41:01.192Z,3068
2018-10-05T12:42:01.796Z,3148
2018-10-05T12:43:03.607Z,3260
2018-10-05T12:44:04.243Z,3380
2018-10-05T12:45:04.870Z,3552
2018-10-05T12:46:05.452Z,3664
2018-10-05T12:47:06.246Z,3884
2018-10-05T12:48:07.062Z,4016
2018-10-05T12:49:07.668Z,4104
2018-10-05T12:50:08.286Z,4248
2018-10-05T12:51:08.898Z,4384
2018-10-05T12:52:09.479Z,4496
2018-10-05T12:53:10.061Z,4628
2018-10-05T12:54:10.642Z,4828
2018-10-05T12:55:11.222Z,5012
2018-10-05T12:56:11.848Z,5260
2018-10-05T12:57:12.429Z,5632
2018-10-05T12:58:13.074Z,6088
2018-10-05T12:59:13.593Z,6608
2018-10-05T13:00:14.227Z,7072
2018-10-05T13:01:14.807Z,7592
2018-10-05T13:02:15.440Z,8156
2018-10-05T13:03:16.023Z,8860
2018-10-05T13:04:16.606Z,9556
2018-10-05T13:05:17.191Z,10248
2018-10-05T13:06:17.776Z,11040
2018-10-05T13:07:18.360Z,11880
2018-10-05T13:08:18.943Z,12752
2018-10-05T13:09:19.528Z,13592
2018-10-05T13:10:20.111Z,14456
2018-10-05T13:11:20.697Z,15156
2018-10-05T13:12:21.280Z,15852
2018-10-05T13:13:21.913Z,16368
2018-10-05T13:14:22.498Z,16904
2018-10-05T13:15:23.133Z,17504
2018-10-05T13:16:23.719Z,18560
2018-10-05T13:17:24.301Z,20704
2018-10-05T13:18:24.935Z,24960
2018-10-05T13:19:25.529Z,31616
2018-10-05T13:20:26.149Z,37888
2018-10-05T13:21:26.735Z,43136
2018-10-05T13:22:27.319Z,49184
2018-10-05T13:23:27.905Z,53920
2018-10-05T13:24:28.540Z,52832
2018-10-05T13:25:29.179Z,53216
2018-10-05T13:26:29.761Z,58752
2018-10-05T13:27:30.346Z,57888
2018-10-05T13:28:47.927Z,59968
2018-10-05T13:29:48.721Z,59424
2018-10-05T13:30:49.300Z,46336
2018-10-05T13:31:49.937Z,40928
2018-10-05T13:32:50.626Z,40896
2018-10-05T13:33:51.232Z,39968
2018-10-05T13:36:11.217Z,38688
2018-10-05T13:37:11.855Z,39168
2018-10-05T13:38:12.392Z,38848
2018-10-05T13:39:26.746Z,38784
2018-10-05T13:41:46.839Z,36992
2018-10-05T13:43:31.733Z,35744
2018-10-05T13:44:32.326Z,35584
2018-10-05T13:45:32.918Z,36128
2018-10-05T13:47:11.974Z,34272
2018-10-05T13:48:42.506Z,35936
2018-10-05T13:56:32.132Z,31904
2018-10-05T13:57:46.575Z,29920
2018-10-05T13:59:00.983Z,27200
2018-10-05T14:00:24.658Z,24224
2018-10-05T14:03:35.782Z,23616
2018-10-05T14:04:54.209Z,28480
2018-10-05T14:06:56.447Z,29344
2018-10-05T14:07:57.050Z,29216
2018-10-05T14:08:57.703Z,29184
2018-10-05T14:09:58.300Z,29344
2018-10-05T14:10:58.901Z,29920
2018-10-05T14:11:59.503Z,30528
2018-10-05T14:13:00.104Z,30752
2018-10-05T14:14:00.702Z,30528
2018-10-05T14:15:01.302Z,27648
2018-10-05T14:17:03.548Z,34784
2018-10-05T14:18:04.242Z,38592
2018-10-05T14:19:04.856Z,41472
2018-10-05T14:20:05.441Z,41760
2018-10-05T14:21:06.041Z,39520
2018-10-05T14:22:06.642Z,36512
2018-10-05T14:23:07.241Z,35616
2018-10-05T14:24:07.843Z,35712
2018-10-05T14:25:08.445Z,35744
2018-10-05T14:26:09.045Z,34976
2018-10-05T14:27:09.645Z,35264
2018-10-05T14:28:10.246Z,34944
2018-10-05T14:29:10.847Z,33760
2018-10-05T14:30:11.498Z,33760
2018-10-05T14:31:12.098Z,33376
2018-10-05T14:32:12.780Z,33024
2018-10-05T14:33:13.344Z,33888
2018-10-05T14:34:13.958Z,35008
2018-10-05T14:35:14.638Z,33536
2018-10-05T14:36:15.291Z,33472
2018-10-05T14:37:15.894Z,33248
2018-10-05T14:38:16.497Z,32480
2018-10-05T14:39:17.099Z,32320
2018-10-05T14:40:17.701Z,32000
2018-10-05T14:41:18.301Z,31744
2018-10-05T14:42:19.002Z,31968
2018-10-05T14:43:19.607Z,32352
2018-10-05T14:44:20.206Z,35744
2018-10-05T14:45:20.807Z,43328
2018-10-05T14:46:21.463Z,41536
2018-10-05T14:47:22.058Z,34208
2018-10-05T14:48:22.661Z,34560
2018-10-05T14:49:23.331Z,36608
2018-10-05T14:50:23.913Z,37184
2018-10-05T14:51:24.514Z,38144
2018-10-05T14:52:25.115Z,37152
2018-10-05T14:53:25.717Z,26464
2018-10-05T14:54:26.316Z,19136
2018-10-05T14:55:26.969Z,18944
2018-10-05T14:57:29.233Z,20416
2018-10-05T14:58:29.830Z,12544
2018-10-05T14:59:30.423Z,16228
2018-10-05T15:00:31.013Z,21056
2018-10-05T15:01:31.756Z,16540
2018-10-05T15:02:32.350Z,16384
2018-10-05T15:03:32.944Z,19648